Time;durP1;ratioP1;P1;durP2;ratioP2;P2;SDS_P1;SDS_P2;PMS_P1;PMS_P2;Temp;Humidity;BMP_temperature;BMP_pressure;BME280_temperature;BME280_humidity;BME280_pressure;Samples;Min_cycle;Max_cycle;Signal;HPM_P1;HPM_P2
2023/04/15 00:02:31;;;;;;;7.93;3.78;;;6.50;99.90;;;;;;5021302;28;20402;-74
2023/04/15 00:04:56;;;;;;;8.77;3.80;;;6.60;99.90;;;;;;5019678;28;20072;-76
2023/04/15 00:07:23;;;;;;;10.02;4.13;;;6.60;99.90;;;;;;5037840;28;20057;-75
2023/04/15 00:09:56;;;;;;;7.22;3.90;;;6.50;99.90;;;;;;5025902;28;20044;-74
2023/04/15 00:12:23;;;;;;;9.70;3.83;;;6.50;99.90;;;;;;5016600;28;20775;-76
2023/04/15 00:14:49;;;;;;;8.13;3.80;;;6.40;99.90;;;;;;5038245;28;20055;-74
2023/04/15 00:17:17;;;;;;;9.80;4.30;;;6.40;99.90;;;;;;5037150;28;20680;-75
2023/04/15 00:19:45;;;;;;;9.45;3.97;;;6.40;99.90;;;;;;5024401;28;20716;-75
2023/04/15 00:22:12;;;;;;;8.98;4.22;;;6.70;99.90;;;;;;5021229;28;20041;-73
2023/04/15 00:24:38;;;;;;;6.60;4.50;;;6.30;99.90;;;;;;5042920;28;20411;-72
2023/04/15 00:27:11;;;;;;;7.68;3.85;;;6.30;99.90;;;;;;5057699;28;20045;-75
2023/04/15 00:29:38;;;;;;;8.27;4.20;;;6.20;99.90;;;;;;5028906;28;20072;-75
2023/04/15 00:32:10;;;;;;;8.77;3.95;;;6.20;99.90;;;;;;5009975;28;20103;-73
2023/04/15 00:34:37;;;;;;;10.77;4.15;;;6.20;99.90;;;;;;5047903;28;20053;-74
2023/04/15 00:37:03;;;;;;;8.52;4.00;;;6.20;99.90;;;;;;5045820;28;20171;-75
2023/04/15 00:39:32;;;;;;;6.28;3.90;;;6.10;99.90;;;;;;5047759;28;20056;-75
2023/04/15 00:42:08;;;;;;;7.28;4.28;;;6.20;99.90;;;;;;5046963;28;20167;-75
2023/04/15 00:44:33;;;;;;;10.70;4.15;;;6.10;99.90;;;;;;5063969;28;20458;-75
2023/04/15 00:47:12;;;;;;;7.45;3.85;;;6.10;99.90;;;;;;5048469;28;20053;-74
2023/04/15 00:49:38;;;;;;;6.43;3.85;;;6.10;99.90;;;;;;5045799;28;20048;-75
2023/04/15 00:52:05;;;;;;;7.38;4.00;;;6.00;99.90;;;;;;5026798;28;20048;-73
2023/04/15 00:54:33;;;;;;;7.88;4.18;;;6.00;99.90;;;;;;5031075;28;20040;-75
2023/04/15 00:57:00;;;;;;;7.88;4.00;;;6.00;99.90;;;;;;5026293;28;20133;-75
2023/04/15 00:59:34;;;;;;;9.02;4.30;;;6.00;99.90;;;;;;5014064;28;20407;-75
2023/04/15 01:02:04;;;;;;;9.70;3.97;;;6.00;99.90;;;;;;5025836;28;20404;-75
2023/04/15 01:04:30;;;;;;;10.32;4.13;;;6.00;99.90;;;;;;5011505;28;20045;-74
2023/04/15 01:06:57;;;;;;;7.57;4.97;;;6.00;99.90;;;;;;5042601;28;20093;-74
2023/04/15 01:09:23;;;;;;;9.57;4.10;;;4.70;99.90;;;;;;5027505;28;20059;-74
2023/04/15 01:11:53;;;;;;;8.13;4.60;;;5.90;99.90;;;;;;5040250;28;20060;-74
2023/04/15 01:14:22;;;;;;;7.68;3.85;;;5.90;99.90;;;;;;5029098;28;20503;-75
2023/04/15 01:16:48;;;;;;;9.95;4.35;;;5.90;99.90;;;;;;5043072;28;20045;-74
2023/04/15 01:19:16;;;;;;;8.68;4.20;;;5.90;99.90;;;;;;5037855;28;21598;-74
2023/04/15 01:21:43;;;;;;;12.52;4.63;;;5.90;99.90;;;;;;5038397;28;20055;-73
2023/04/15 01:24:17;;;;;;;7.35;4.35;;;5.70;99.90;;;;;;5056719;28;20557;-73
2023/04/15 01:26:45;;;;;;;7.28;4.10;;;5.90;99.90;;;;;;5025045;28;20049;-75
2023/04/15 01:29:12;;;;;;;9.02;4.88;;;5.80;99.90;;;;;;5039414;28;20103;-74
2023/04/15 01:31:38;;;;;;;9.13;4.78;;;5.80;99.90;;;;;;5021922;28;20048;-75
2023/04/15 01:34:11;;;;;;;7.20;4.18;;;6.00;99.90;;;;;;5038546;28;20049;-73
2023/04/15 01:36:39;;;;;;;9.68;4.68;;;5.80;99.90;;;;;;5041072;28;20064;-74
2023/04/15 01:39:06;;;;;;;11.40;5.10;;;4.20;99.90;;;;;;5022559;28;20123;-72
2023/04/15 01:41:33;;;;;;;11.70;5.50;;;6.10;99.90;;;;;;5038917;28;20069;-75
2023/04/15 01:44:01;;;;;;;10.05;5.55;;;5.70;99.90;;;;;;5040660;28;20045;-74
2023/04/15 01:46:27;;;;;;;11.27;5.03;;;5.70;99.90;;;;;;5041299;28;20120;-74
2023/04/15 01:48:53;;;;;;;10.02;5.63;;;5.70;99.90;;;;;;5040362;28;20056;-74
2023/04/15 01:51:19;;;;;;;7.53;4.97;;;5.70;99.90;;;;;;5041367;28;20049;-75
2023/04/15 01:53:47;;;;;;;13.05;5.22;;;5.70;99.90;;;;;;5006409;28;20044;-74
2023/04/15 01:56:13;;;;;;;10.98;6.10;;;5.70;99.90;;;;;;5022999;28;20059;-75
2023/04/15 01:58:45;;;;;;;9.95;5.72;;;5.70;99.90;;;;;;5039885;28;20347;-74
2023/04/15 02:01:20;;;;;;;9.05;5.70;;;6.20;99.90;;;;;;5039899;28;20056;-73
2023/04/15 02:04:01;;;;;;;9.43;5.75;;;5.60;99.90;;;;;;5054529;28;20115;-73
2023/04/15 02:06:33;;;;;;;10.63;5.68;;;5.60;99.90;;;;;;5021681;28;20055;-75
2023/04/15 02:08:59;;;;;;;14.20;6.32;;;5.60;99.90;;;;;;5036390;28;20041;-75
2023/04/15 02:11:26;;;;;;;10.70;6.38;;;4.90;99.90;;;;;;5023701;28;20044;-74
2023/04/15 02:14:00;;;;;;;9.77;5.80;;;5.60;99.90;;;;;;5043008;28;20045;-74
2023/04/15 02:16:26;;;;;;;10.98;6.28;;;5.60;99.90;;;;;;5024755;28;20136;-74
2023/04/15 02:18:52;;;;;;;10.05;6.57;;;5.60;99.90;;;;;;5056198;28;20128;-75
2023/04/15 02:21:19;;;;;;;10.73;6.68;;;5.50;99.90;;;;;;5013222;28;20041;-74
2023/04/15 02:23:46;;;;;;;11.25;7.13;;;5.50;99.90;;;;;;5025428;28;20105;-75
2023/04/15 02:26:14;;;;;;;11.70;6.80;;;5.50;99.90;;;;;;5037628;28;20041;-74
2023/04/15 02:28:40;;;;;;;12.07;6.78;;;5.50;99.90;;;;;;5038719;28;20090;-74
2023/04/15 02:31:10;;;;;;;11.55;7.07;;;5.50;99.90;;;;;;5023584;28;20053;-73
2023/04/15 02:33:37;;;;;;;11.43;6.88;;;5.50;99.90;;;;;;5024165;28;20137;-75
2023/04/15 02:36:04;;;;;;;10.60;6.88;;;5.50;99.90;;;;;;5025708;28;20056;-74
2023/04/15 02:38:37;;;;;;;12.32;7.68;;;5.50;99.90;;;;;;5038626;28;20060;-75
2023/04/15 02:41:09;;;;;;;10.07;6.85;;;5.50;99.90;;;;;;5057252;28;20049;-73
2023/04/15 02:43:35;;;;;;;12.88;7.50;;;6.30;99.90;;;;;;5023452;28;20049;-74
2023/04/15 02:46:02;;;;;;;13.15;7.30;;;5.40;99.90;;;;;;5040229;28;20103;-75
2023/04/15 02:48:28;;;;;;;11.07;7.93;;;5.40;99.90;;;;;;5045822;28;20084;-73
2023/04/15 02:51:21;;;;;;;14.73;7.90;;;5.40;99.90;;;;;;5022158;28;20076;-74
2023/04/15 02:53:49;;;;;;;10.02;7.07;;;5.40;99.90;;;;;;5058933;28;20061;-74
2023/04/15 02:56:18;;;;;;;10.60;7.50;;;5.40;99.90;;;;;;5025228;28;20416;-73
2023/04/15 02:58:56;;;;;;;15.98;8.30;;;5.40;99.90;;;;;;5042941;28;20059;-74
2023/04/15 03:01:31;;;;;;;15.27;8.10;;;5.30;99.90;;;;;;5040270;28;20048;-74
2023/04/15 03:03:58;;;;;;;11.88;7.63;;;5.30;99.90;;;;;;5021176;28;20056;-74
2023/04/15 03:06:25;;;;;;;15.77;8.05;;;5.30;99.90;;;;;;5040168;28;20045;-74
2023/04/15 03:08:50;;;;;;;12.68;8.45;;;5.30;99.90;;;;;;5009300;28;20081;-74
2023/04/15 03:11:17;;;;;;;11.55;7.80;;;5.30;99.90;;;;;;5026168;28;20084;-75
2023/04/15 03:13:43;;;;;;;11.38;7.63;;;5.30;99.90;;;;;;5038385;28;20045;-75
2023/04/15 03:16:09;;;;;;;14.23;8.38;;;5.20;99.90;;;;;;5055561;28;20111;-74
2023/04/15 03:18:37;;;;;;;15.52;8.25;;;5.10;99.90;;;;;;5034170;28;20048;-75
2023/04/15 03:21:05;;;;;;;14.45;8.30;;;5.20;99.90;;;;;;5020074;28;20057;-73
2023/04/15 03:23:31;;;;;;;12.20;8.00;;;5.20;99.90;;;;;;5038376;28;21240;-75
2023/04/15 03:26:00;;;;;;;14.07;8.30;;;5.20;99.90;;;;;;5005609;28;20048;-74
2023/04/15 03:28:30;;;;;;;11.10;7.90;;;5.20;99.90;;;;;;5052255;28;20048;-74
2023/04/15 03:30:56;;;;;;;13.00;8.60;;;5.10;99.90;;;;;;5007086;28;20049;-74
2023/04/15 03:33:23;;;;;;;12.95;8.35;;;5.20;99.90;;;;;;5021191;28;20049;-75
2023/04/15 03:35:52;;;;;;;12.80;8.10;;;5.10;99.90;;;;;;5049082;28;20041;-74
2023/04/15 03:38:24;;;;;;;14.32;8.02;;;5.10;99.90;;;;;;5019418;28;20682;-74
2023/04/15 03:40:50;;;;;;;13.70;8.15;;;5.10;99.90;;;;;;5034040;28;20056;-74
2023/04/15 03:43:15;;;;;;;13.75;8.27;;;5.10;99.90;;;;;;5002826;28;20048;-77
2023/04/15 03:45:43;;;;;;;14.88;8.63;;;5.10;99.90;;;;;;5022500;28;20040;-73
2023/04/15 03:48:08;;;;;;;12.85;7.88;;;5.00;99.90;;;;;;5033923;28;20128;-74
2023/04/15 03:50:35;;;;;;;14.95;8.00;;;5.10;99.90;;;;;;5021491;28;20494;-73
2023/04/15 03:53:01;;;;;;;14.27;8.93;;;5.40;99.90;;;;;;5006265;28;20048;-75
2023/04/15 03:55:28;;;;;;;13.60;8.52;;;5.00;99.90;;;;;;5033784;28;20057;-74
2023/04/15 03:57:58;;;;;;;12.40;7.90;;;5.00;99.90;;;;;;5023116;28;20045;-74
2023/04/15 04:00:25;;;;;;;12.90;8.13;;;5.00;99.90;;;;;;5022521;28;20064;-74
2023/04/15 04:02:51;;;;;;;12.02;8.35;;;5.00;99.90;;;;;;5020630;28;20060;-74
2023/04/15 04:05:18;;;;;;;14.68;8.35;;;5.00;99.90;;;;;;5030327;28;20052;-75
2023/04/15 04:07:44;;;;;;;15.10;8.13;;;4.90;99.90;;;;;;5034577;28;20076;-75
2023/04/15 04:10:13;;;;;;;14.02;8.27;;;4.90;99.90;;;;;;5037193;28;20049;-74
2023/04/15 04:12:43;;;;;;;11.50;7.65;;;4.90;99.90;;;;;;5030747;28;20163;-74
2023/04/15 04:15:09;;;;;;;13.88;8.45;;;5.00;99.90;;;;;;4998730;28;20061;-75
2023/04/15 04:17:38;;;;;;;12.90;7.13;;;4.90;99.90;;;;;;5017846;28;20064;-75
2023/04/15 04:20:04;;;;;;;13.43;8.23;;;4.90;99.90;;;;;;5034928;28;20067;-74
2023/04/15 04:22:41;;;;;;;12.95;8.48;;;4.80;99.90;;;;;;5017222;28;20061;-76
2023/04/15 04:25:12;;;;;;;13.70;8.07;;;5.20;99.90;;;;;;5018618;28;20064;-74
2023/04/15 04:27:38;;;;;;;13.60;7.88;;;4.90;99.90;;;;;;5033366;28;20072;-74
2023/04/15 04:30:05;;;;;;;14.23;8.65;;;4.80;99.90;;;;;;5047191;28;20049;-74
2023/04/15 04:32:32;;;;;;;15.70;9.68;;;4.80;99.90;;;;;;5032035;28;20061;-75
2023/04/15 04:35:04;;;;;;;15.75;9.25;;;4.90;99.90;;;;;;5046619;28;20054;-75
2023/04/15 04:37:34;;;;;;;14.57;9.32;;;4.80;99.90;;;;;;5034718;28;20400;-73
2023/04/15 04:40:00;;;;;;;11.85;8.52;;;4.80;99.90;;;;;;5031238;28;20492;-73
2023/04/15 04:42:27;;;;;;;15.35;8.85;;;4.80;99.90;;;;;;5033402;28;20156;-73
2023/04/15 04:44:54;;;;;;;13.73;8.95;;;4.80;99.90;;;;;;5018484;28;20107;-74
2023/04/15 04:47:22;;;;;;;15.98;9.45;;;4.80;99.90;;;;;;5016693;28;20052;-74
2023/04/15 04:49:49;;;;;;;13.40;8.73;;;4.80;99.90;;;;;;5030642;28;20076;-75
2023/04/15 04:52:15;;;;;;;16.08;8.90;;;4.80;99.90;;;;;;5006550;28;20045;-74
2023/04/15 04:54:46;;;;;;;15.70;9.05;;;4.80;99.90;;;;;;5002312;28;20531;-74
2023/04/15 04:57:12;;;;;;;18.80;10.00;;;4.80;99.90;;;;;;5031422;28;20048;-74
2023/04/15 04:59:44;;;;;;;13.00;8.20;;;4.80;99.90;;;;;;5018698;28;20045;-74
2023/04/15 05:02:10;;;;;;;14.15;9.10;;;4.80;99.90;;;;;;5013628;28;20045;-74
2023/04/15 05:04:53;;;;;;;14.32;9.25;;;4.80;99.90;;;;;;5034005;28;20127;-75
2023/04/15 05:07:20;;;;;;;13.30;8.88;;;4.80;99.90;;;;;;5032008;28;20416;-74
2023/04/15 05:09:55;;;;;;;14.95;9.73;;;4.80;99.90;;;;;;5035045;28;20045;-74
2023/04/15 05:12:22;;;;;;;13.48;9.13;;;4.70;99.90;;;;;;5023502;28;20044;-74
2023/04/15 05:14:55;;;;;;;17.48;9.35;;;5.60;99.90;;;;;;5022035;28;20045;-74
2023/04/15 05:17:22;;;;;;;14.32;9.48;;;4.80;99.90;;;;;;5038223;28;20048;-74
2023/04/15 05:19:48;;;;;;;15.07;10.00;;;4.80;99.90;;;;;;5020595;28;20065;-75
2023/04/15 05:22:20;;;;;;;16.90;9.35;;;4.80;99.90;;;;;;5034427;28;20073;-74
2023/04/15 05:24:46;;;;;;;14.88;9.20;;;4.80;99.90;;;;;;5034754;28;20131;-74
2023/04/15 05:27:23;;;;;;;15.30;9.65;;;4.90;99.90;;;;;;5007562;28;20111;-74
2023/04/15 05:30:00;;;;;;;15.00;9.25;;;4.90;99.90;;;;;;5035858;28;20144;-75
2023/04/15 05:32:32;;;;;;;14.55;9.40;;;4.90;99.90;;;;;;5020354;28;20056;-75
2023/04/15 05:34:57;;;;;;;15.43;9.68;;;4.90;99.90;;;;;;5037201;28;20236;-75
2023/04/15 05:37:29;;;;;;;14.38;9.48;;;5.80;99.90;;;;;;5008823;28;22070;-76
2023/04/15 05:39:55;;;;;;;13.35;9.25;;;5.10;99.90;;;;;;5022418;28;20543;-74
2023/04/15 05:42:21;;;;;;;15.63;10.00;;;5.10;99.90;;;;;;5053768;28;20071;-76
2023/04/15 05:45:00;;;;;;;15.40;9.57;;;5.10;99.90;;;;;;5041349;28;20049;-74
2023/04/15 05:47:26;;;;;;;17.15;10.70;;;5.20;99.90;;;;;;5033902;28;20088;-71
2023/04/15 05:49:52;;;;;;;16.65;10.18;;;5.60;99.90;;;;;;5035954;28;20156;-74
2023/04/15 05:52:18;;;;;;;16.00;10.23;;;5.30;99.90;;;;;;5019224;28;20069;-73
2023/04/15 05:54:50;;;;;;;16.23;10.55;;;5.30;99.90;;;;;;5006678;28;20713;-74
2023/04/15 05:57:20;;;;;;;16.92;9.95;;;5.30;99.90;;;;;;5036673;28;20087;-75
2023/04/15 05:59:48;;;;;;;15.35;8.88;;;5.40;99.90;;;;;;5024801;28;21887;-75
2023/04/15 06:02:17;;;;;;;14.95;9.80;;;4.20;99.90;;;;;;5040120;28;20066;-74
2023/04/15 06:04:44;;;;;;;14.40;9.23;;;5.50;99.90;;;;;;5038396;28;20057;-75
2023/04/15 06:07:10;;;;;;;16.92;9.13;;;5.90;99.90;;;;;;5038976;28;20044;-75
2023/04/15 06:09:35;;;;;;;16.45;9.20;;;5.60;99.90;;;;;;5031923;28;20041;-76
2023/04/15 06:12:01;;;;;;;12.65;8.23;;;5.60;99.90;;;;;;5035561;28;20045;-74
2023/04/15 06:14:27;;;;;;;12.68;8.32;;;5.70;99.90;;;;;;5034773;28;20131;-76
2023/04/15 06:16:53;;;;;;;15.15;8.70;;;5.70;99.90;;;;;;5051127;28;20094;-76
2023/04/15 06:19:20;;;;;;;15.18;8.85;;;5.90;99.90;;;;;;5053611;28;20041;-74
2023/04/15 06:21:47;;;;;;;13.68;8.15;;;6.50;99.90;;;;;;5030574;28;20110;-76
2023/04/15 06:24:16;;;;;;;12.65;8.00;;;5.90;99.90;;;;;;5022295;28;20115;-75
2023/04/15 06:26:43;;;;;;;12.27;7.78;;;6.60;99.90;;;;;;5030900;28;20045;-74
2023/04/15 06:29:10;;;;;;;10.68;6.93;;;6.00;99.90;;;;;;5024743;28;20063;-76
2023/04/15 06:31:36;;;;;;;11.18;7.72;;;6.10;99.90;;;;;;5021210;28;20426;-75
2023/04/15 06:34:02;;;;;;;10.57;6.85;;;6.30;99.90;;;;;;5032000;28;20059;-74
2023/04/15 06:36:48;;;;;;;11.30;7.35;;;6.20;99.90;;;;;;5035887;28;20059;-76
2023/04/15 06:39:21;;;;;;;11.43;6.82;;;6.30;99.90;;;;;;5034010;28;20083;-74
2023/04/15 06:41:47;;;;;;;10.68;7.18;;;6.40;99.90;;;;;;5020034;28;20049;-74
2023/04/15 06:44:13;;;;;;;10.35;6.82;;;6.50;99.90;;;;;;5032039;28;20060;-74
2023/04/15 06:46:53;;;;;;;10.18;6.40;;;6.70;99.90;;;;;;5033105;28;20478;-75
2023/04/15 06:49:28;;;;;;;12.55;6.30;;;6.90;99.90;;;;;;5034896;28;20048;-73
2023/04/15 06:52:03;;;;;;;10.98;6.07;;;6.80;99.90;;;;;;5029599;28;20107;-75
2023/04/15 06:54:31;;;;;;;11.30;6.55;;;7.20;99.90;;;;;;5018956;28;20077;-73
2023/04/15 06:57:06;;;;;;;10.52;6.57;;;7.40;99.90;;;;;;5036475;28;20051;-75
2023/04/15 06:59:33;;;;;;;14.35;7.30;;;7.60;99.90;;;;;;5034743;28;20061;-77
2023/04/15 07:02:18;;;;;;;13.80;7.25;;;7.80;99.90;;;;;;5021326;28;20045;-75
2023/04/15 07:04:43;;;;;;;14.98;8.20;;;8.00;99.90;;;;;;5035087;28;20100;-72
2023/04/15 07:07:09;;;;;;;12.60;8.25;;;8.10;99.90;;;;;;5020329;28;20586;-76
2023/04/15 07:09:35;;;;;;;12.25;8.20;;;8.30;99.90;;;;;;5005933;28;20167;-77
2023/04/15 07:12:01;;;;;;;15.73;9.23;;;8.50;99.90;;;;;;5017598;28;20064;-78
2023/04/15 07:14:26;;;;;;;15.35;9.52;;;8.70;99.90;;;;;;5020467;28;20498;-77
2023/04/15 07:16:52;;;;;;;17.65;9.10;;;8.80;99.90;;;;;;5021959;28;20084;-78
2023/04/15 07:19:18;;;;;;;13.73;9.57;;;9.00;99.90;;;;;;5020415;28;20048;-76
2023/04/15 07:21:47;;;;;;;13.00;9.00;;;9.10;99.90;;;;;;5034452;28;20082;-77
2023/04/15 07:24:16;;;;;;;14.02;8.57;;;9.20;99.90;;;;;;5035421;28;20049;-76
2023/04/15 07:26:43;;;;;;;11.95;8.57;;;9.30;99.90;;;;;;5021346;28;20080;-76
2023/04/15 07:29:10;;;;;;;12.10;8.20;;;9.40;99.90;;;;;;5039794;28;20072;-76
2023/04/15 07:31:37;;;;;;;11.82;8.52;;;9.50;99.90;;;;;;5038189;28;20059;-78
2023/04/15 07:34:03;;;;;;;14.05;9.30;;;9.50;99.90;;;;;;5041259;28;20048;-76
2023/04/15 07:36:31;;;;;;;13.93;9.00;;;9.60;99.90;;;;;;5037277;28;20041;-74
2023/04/15 07:39:00;;;;;;;14.48;9.93;;;9.70;99.90;;;;;;5021658;28;20044;-75
2023/04/15 07:41:30;;;;;;;13.68;9.50;;;9.80;99.90;;;;;;5021414;28;20088;-75
2023/04/15 07:43:57;;;;;;;11.73;8.82;;;9.50;99.90;;;;;;5038466;28;20049;-74
2023/04/15 07:46:26;;;;;;;13.32;8.60;;;9.90;99.90;;;;;;5039131;28;20468;-74
2023/04/15 07:48:52;;;;;;;12.75;8.73;;;10.00;99.90;;;;;;5021253;28;20390;-74
2023/04/15 07:51:19;;;;;;;11.52;8.68;;;10.10;99.90;;;;;;5042535;28;20383;-74
2023/04/15 07:53:46;;;;;;;11.32;8.10;;;10.30;99.90;;;;;;5040313;28;20057;-73
2023/04/15 07:56:12;;;;;;;10.00;7.07;;;10.50;99.90;;;;;;5036789;28;20055;-75
2023/04/15 07:58:37;;;;;;;11.35;7.03;;;10.50;99.90;;;;;;5057036;28;20044;-75
2023/04/15 08:01:04;;;;;;;13.43;8.10;;;9.10;99.90;;;;;;5022451;28;20080;-75
2023/04/15 08:03:30;;;;;;;11.40;7.50;;;10.60;99.90;;;;;;5024408;28;20485;-74
2023/04/15 08:05:57;;;;;;;10.93;7.18;;;10.70;99.90;;;;;;5036796;28;20060;-74
2023/04/15 08:08:27;;;;;;;11.90;8.13;;;10.70;99.90;;;;;;5041343;28;20060;-74
2023/04/15 08:10:53;;;;;;;12.43;7.00;;;10.70;99.90;;;;;;4997863;28;20064;-75
2023/04/15 08:13:20;;;;;;;11.60;6.35;;;10.80;99.90;;;;;;5001805;28;20111;-76
2023/04/15 08:16:06;;;;;;;8.57;6.07;;;10.80;99.90;;;;;;4983904;28;20066;-76
2023/04/15 08:18:34;;;;;;;10.95;6.20;;;10.80;99.90;;;;;;4996256;28;20076;-74
2023/04/15 08:21:00;;;;;;;10.32;6.07;;;10.80;99.90;;;;;;4986903;28;20650;-73
2023/04/15 08:23:26;;;;;;;8.23;5.18;;;10.80;99.90;;;;;;4985117;28;20058;-74
2023/04/15 08:25:52;;;;;;;8.57;5.53;;;10.80;99.90;;;;;;4953613;28;20111;-76
2023/04/15 08:28:25;;;;;;;6.25;4.60;;;10.80;99.90;;;;;;4980131;28;20192;-75
2023/04/15 08:30:54;;;;;;;7.10;4.95;;;10.80;99.90;;;;;;4978198;28;20061;-75
2023/04/15 08:33:20;;;;;;;9.20;5.18;;;10.80;99.90;;;;;;4983185;28;20064;-74
2023/04/15 08:35:48;;;;;;;8.98;4.97;;;10.80;99.90;;;;;;5001300;28;20110;-75
2023/04/15 08:38:14;;;;;;;9.40;6.00;;;10.80;99.90;;;;;;4981216;28;20067;-75
2023/04/15 08:40:45;;;;;;;9.93;5.38;;;11.90;99.90;;;;;;5001995;28;20563;-74
2023/04/15 08:43:26;;;;;;;7.72;5.05;;;10.80;99.90;;;;;;5038771;28;20049;-74
2023/04/15 08:45:52;;;;;;;7.80;4.85;;;10.90;99.90;;;;;;5040184;28;20499;-74
2023/04/15 08:48:18;;;;;;;9.45;4.68;;;11.00;99.90;;;;;;5043642;28;20041;-76
2023/04/15 08:50:46;;;;;;;8.15;4.78;;;11.10;99.90;;;;;;5044597;28;20045;-72
2023/04/15 08:53:12;;;;;;;7.75;5.05;;;11.20;99.90;;;;;;5021558;28;20608;-72
2023/04/15 08:55:51;;;;;;;7.45;4.63;;;11.40;99.90;;;;;;5042772;28;20092;-72
2023/04/15 08:58:24;;;;;;;10.55;4.70;;;11.50;99.90;;;;;;5027758;28;20055;-72
2023/04/15 09:00:49;;;;;;;10.65;4.90;;;11.70;99.90;;;;;;5025039;28;20391;-74
2023/04/15 09:03:16;;;;;;;8.25;4.85;;;11.80;99.90;;;;;;5058568;28;20079;-76
2023/04/15 09:05:43;;;;;;;6.53;4.65;;;11.90;99.90;;;;;;5024004;28;20146;-74
2023/04/15 09:08:12;;;;;;;5.68;3.75;;;11.90;99.90;;;;;;5046370;28;20048;-80
2023/04/15 09:10:37;;;;;;;7.68;4.50;;;12.10;99.90;;;;;;5035006;28;20036;-76
2023/04/15 09:13:07;;;;;;;9.30;4.50;;;12.20;99.90;;;;;;5043672;28;20111;-77
2023/04/15 09:15:37;;;;;;;7.50;4.13;;;12.20;99.90;;;;;;5049624;28;20124;-77
2023/04/15 09:18:03;;;;;;;5.80;3.92;;;12.10;99.90;;;;;;5049572;28;20442;-79
2023/04/15 09:20:41;;;;;;;7.53;3.90;;;12.10;99.90;;;;;;5051521;28;20096;-78
2023/04/15 09:23:16;;;;;;;7.60;4.05;;;12.10;99.90;;;;;;5013592;28;20407;-79
2023/04/15 09:25:42;;;;;;;7.20;4.03;;;12.00;99.90;;;;;;5059540;28;20560;-78
2023/04/15 09:28:08;;;;;;;7.15;3.75;;;11.90;99.90;;;;;;5064802;28;20049;-79
2023/04/15 09:30:45;;;;;;;7.40;4.15;;;11.90;99.90;;;;;;5026642;28;20049;-83
2023/04/15 09:33:14;;;;;;;8.65;4.00;;;11.90;99.90;;;;;;5040140;28;20052;-77
2023/04/15 09:35:40;;;;;;;5.43;3.65;;;11.90;99.90;;;;;;5044457;28;20048;-78
2023/04/15 09:38:11;;;;;;;6.60;3.88;;;12.00;99.90;;;;;;5027284;28;20101;-77
2023/04/15 09:40:40;;;;;;;6.35;4.05;;;12.10;99.90;;;;;;5044872;28;20116;-77
2023/04/15 09:43:08;;;;;;;7.63;3.75;;;12.20;99.90;;;;;;5056053;28;20056;-79
2023/04/15 09:45:35;;;;;;;8.35;4.32;;;12.40;99.90;;;;;;5056521;28;20037;-77
2023/04/15 09:48:20;;;;;;;7.50;3.70;;;12.50;99.90;;;;;;5060291;28;20450;-79
2023/04/15 09:50:50;;;;;;;5.88;3.70;;;12.60;99.90;;;;;;5061514;28;20120;-83
2023/04/15 09:53:18;;;;;;;6.22;3.63;;;12.70;99.90;;;;;;5042297;28;20049;-79
2023/04/15 09:55:51;;;;;;;5.47;3.30;;;12.80;99.90;;;;;;5040336;28;20049;-80
2023/04/15 09:58:30;;;;;;;6.07;3.30;;;12.90;99.90;;;;;;5015394;28;20045;-74
2023/04/15 10:00:57;;;;;;;6.40;3.30;;;12.90;99.90;;;;;;5032245;28;20080;-74
2023/04/15 10:03:30;;;;;;;6.30;3.15;;;12.90;99.90;;;;;;5023087;28;20098;-76
2023/04/15 10:05:58;;;;;;;5.18;2.88;;;12.90;99.90;;;;;;5023995;28;20072;-77
2023/04/15 10:08:33;;;;;;;5.00;3.20;;;13.10;99.90;;;;;;5041256;28;20060;-79
2023/04/15 10:11:03;;;;;;;5.32;3.00;;;13.40;99.90;;;;;;5044124;28;20043;-77
2023/04/15 10:13:43;;;;;;;4.93;2.63;;;13.70;99.90;;;;;;5041557;28;20063;-79
2023/04/15 10:16:21;;;;;;;5.38;3.28;;;13.90;99.90;;;;;;5043976;28;20052;-78
2023/04/15 10:18:54;;;;;;;5.22;3.15;;;14.10;99.90;;;;;;5042661;28;20069;-78
2023/04/15 10:21:21;;;;;;;4.30;3.05;;;14.50;99.90;;;;;;5044079;28;20124;-79
2023/04/15 10:23:51;;;;;;;6.10;2.65;;;14.60;99.90;;;;;;5041173;28;20178;-81
2023/04/15 10:26:17;;;;;;;4.43;2.47;;;14.80;99.90;;;;;;5038378;28;20060;-80
2023/04/15 10:28:47;;;;;;;3.85;2.00;;;15.10;99.90;;;;;;5026155;28;20120;-80
2023/04/15 10:31:16;;;;;;;5.80;2.50;;;15.40;99.90;;;;;;5044672;28;20164;-78
2023/04/15 10:33:43;;;;;;;5.20;2.10;;;15.60;99.90;;;;;;5038373;28;20504;-77
2023/04/15 10:36:16;;;;;;;5.05;2.30;;;15.80;99.90;;;;;;5034703;28;20103;-80
2023/04/15 10:38:44;;;;;;;4.95;2.17;;;16.20;99.90;;;;;;5032768;28;20114;-78
2023/04/15 10:41:36;;;;;;;4.78;2.30;;;16.50;99.90;;;;;;5012385;28;20052;-78
2023/04/15 10:44:03;;;;;;;4.53;2.15;;;17.40;99.90;;;;;;5041407;28;20372;-75
2023/04/15 10:46:52;;;;;;;4.85;2.00;;;16.70;99.90;;;;;;5055031;28;20037;-77
2023/04/15 10:49:25;;;;;;;3.83;1.80;;;16.70;99.90;;;;;;5038897;28;20052;-77
2023/04/15 10:51:56;;;;;;;3.65;1.90;;;16.80;99.90;;;;;;5035533;28;20518;-81
2023/04/15 10:54:25;;;;;;;4.15;2.03;;;17.10;99.90;;;;;;5041662;28;20513;-78
2023/04/15 10:57:21;;;;;;;4.43;1.90;;;17.20;99.90;;;;;;5052977;28;20053;-79
2023/04/15 11:00:13;;;;;;;3.63;2.40;;;17.30;99.90;;;;;;5049396;28;20072;-78
2023/04/15 11:02:55;;;;;;;2.35;1.60;;;17.20;99.90;;;;;;4982389;28;20096;-74
2023/04/15 11:06:00;;;;;;;3.80;1.95;;;17.10;99.90;;;;;;4982538;28;20054;-75
2023/04/15 11:09:04;;;;;;;3.85;1.70;;;17.30;99.90;;;;;;4996536;28;20119;-75
2023/04/15 11:12:08;;;;;;;4.82;2.22;;;16.20;99.90;;;;;;4998032;28;20149;-76
2023/04/15 11:14:42;;;;;;;6.00;1.88;;;17.20;99.90;;;;;;4981928;28;20533;-78
2023/04/15 11:17:15;;;;;;;3.38;1.50;;;17.20;99.90;;;;;;4982024;28;20054;-75
2023/04/15 11:19:44;;;;;;;3.10;1.90;;;17.20;99.90;;;;;;5001543;28;20465;-76
2023/04/15 11:22:11;;;;;;;2.88;1.30;;;17.30;99.90;;;;;;4981541;28;20253;-74
2023/04/15 11:24:49;;;;;;;3.55;1.38;;;17.30;99.90;;;;;;4969019;28;20054;-76
2023/04/15 11:27:32;;;;;;;2.88;1.25;;;17.40;99.90;;;;;;4981486;28;20049;-76
2023/04/15 11:29:59;;;;;;;3.58;1.42;;;17.30;99.90;;;;;;4986170;28;20129;-74
2023/04/15 11:32:33;;;;;;;2.78;1.30;;;17.00;99.90;;;;;;4960801;28;20061;-77
2023/04/15 11:35:02;;;;;;;3.22;1.48;;;16.60;99.90;;;;;;5007461;28;20111;-75
2023/04/15 11:37:32;;;;;;;4.25;1.50;;;16.20;99.90;;;;;;5021494;28;20162;-77
2023/04/15 11:40:06;;;;;;;2.60;1.40;;;15.90;99.90;;;;;;5034840;28;20403;-76
2023/04/15 11:42:40;;;;;;;3.90;1.60;;;15.70;99.90;;;;;;5050723;28;20064;-75
2023/04/15 11:45:12;;;;;;;2.67;1.42;;;15.50;99.90;;;;;;5021645;28;20052;-75
2023/04/15 11:47:39;;;;;;;3.95;1.58;;;15.20;99.90;;;;;;5034919;28;20048;-76
2023/04/15 11:50:29;;;;;;;4.22;1.73;;;14.90;99.90;;;;;;4967441;28;20099;-75
2023/04/15 11:53:00;;;;;;;4.45;1.77;;;14.60;99.90;;;;;;5000664;28;20045;-75
2023/04/15 11:55:27;;;;;;;4.22;1.50;;;14.40;99.90;;;;;;5031614;28;20131;-74
2023/04/15 11:58:15;;;;;;;5.55;1.65;;;14.20;99.90;;;;;;5014810;28;20061;-75
2023/04/15 12:01:04;;;;;;;4.50;1.60;;;14.00;99.90;;;;;;5031007;28;21065;-76
2023/04/15 12:03:42;;;;;;;6.13;1.60;;;13.80;99.90;;;;;;4996247;28;20049;-76
2023/04/15 12:06:22;;;;;;;4.88;1.55;;;13.60;99.90;;;;;;5029441;28;20041;-75
2023/04/15 12:08:59;;;;;;;3.67;1.33;;;13.60;99.90;;;;;;5014437;28;20072;-75
2023/04/15 12:11:28;;;;;;;4.38;1.50;;;13.60;99.90;;;;;;5011978;28;20051;-75
2023/04/15 12:14:09;;;;;;;5.30;1.30;;;13.50;99.90;;;;;;5020255;28;20053;-77
2023/04/15 12:16:47;;;;;;;4.50;1.52;;;13.50;99.90;;;;;;5018896;28;20133;-76
2023/04/15 12:19:45;;;;;;;7.43;2.25;;;13.30;99.90;;;;;;5022521;28;20132;-76
2023/04/15 12:22:16;;;;;;;8.55;1.90;;;13.20;99.90;;;;;;5038974;28;20534;-76
2023/04/15 12:24:46;;;;;;;6.03;1.42;;;13.00;99.90;;;;;;5020316;28;20075;-76
2023/04/15 12:27:19;;;;;;;4.38;1.50;;;13.00;99.90;;;;;;5016490;28;20041;-76
2023/04/15 12:29:46;;;;;;;4.15;1.52;;;13.10;99.90;;;;;;4983190;28;20074;-75
2023/04/15 12:32:16;;;;;;;6.95;1.52;;;13.20;99.90;;;;;;5019115;28;20381;-75
2023/04/15 12:34:48;;;;;;;6.60;1.73;;;13.20;99.90;;;;;;5019540;28;20060;-78
2023/04/15 12:37:14;;;;;;;5.63;2.15;;;13.10;99.90;;;;;;5017088;28;20056;-77
2023/04/15 12:39:54;;;;;;;8.15;2.22;;;12.90;99.90;;;;;;5003500;28;20054;-76
2023/04/15 12:42:27;;;;;;;6.78;1.85;;;12.80;99.90;;;;;;4990929;28;20065;-77
2023/04/15 12:44:59;;;;;;;5.85;1.88;;;12.50;99.90;;;;;;5021273;28;20436;-74
2023/04/15 12:47:32;;;;;;;6.38;1.58;;;12.40;99.90;;;;;;5003638;28;20045;-74
2023/04/15 12:50:04;;;;;;;8.63;1.80;;;12.20;99.90;;;;;;5020276;28;20539;-75
2023/04/15 12:52:33;;;;;;;7.63;1.40;;;12.10;99.90;;;;;;5002087;28;20057;-75
2023/04/15 12:55:07;;;;;;;5.35;1.60;;;12.00;99.90;;;;;;5003291;28;20085;-77
2023/04/15 12:57:35;;;;;;;4.93;1.40;;;12.00;99.90;;;;;;5018341;28;20078;-77
2023/04/15 13:00:08;;;;;;;6.00;1.30;;;12.00;99.90;;;;;;4999022;28;20470;-77
2023/04/15 13:02:36;;;;;;;6.35;1.55;;;12.00;99.90;;;;;;5035431;28;20046;-77
2023/04/15 13:05:06;;;;;;;4.28;1.40;;;11.30;99.90;;;;;;5020711;28;20049;-76